Relevés horaires St-Hubert (Belgique)


Relevés horaires à St-Hubert - Dimanche 22 Avr. 2018
Heure UTC1 Température [°C] Vent [km/h] Hum. [%] Pres.4 [hPa] Visi. [Km] Nébu. [octa] Préc.5 [mm] Cond.
2m. Res. Ros. Dir.2 Vit. Moy. Raf.3
23:00 14.8 14.7 10.4 ONO 7.4 9.3 14.8 75 1014.2(0.9/3h) 28 0/8 -- --
22:00 16.3 16.3 10.7 SO 5.6 5.6 9.3 69 1013.1(0.5/3h) 29 0/8 -- --
21:00 16.1 16.1 10.4 OSO 3.7 7.4 13.0 69 1013.2(0.9/3h) 30 0/8 -- --
20:00 16.7 16.7 11.4 SSO 5.6 7.4 11.1 71 1012.8(0.9/3h) 30 0/8 -- --
19:00 17.4 17.4 11.0 SO 5.6 7.4 13.0 66 1012.3(0.6/3h) 28 0/8 -- --
18:00 19.0 19.0 10.2 SO 7.4 13.0 66.7 57 1011.6(0.2/3h) 30 0/8 0/12h
--
17:00 20.0 20.0 10.4 SO 11.1 11.1 18.5 54 1011.1(-0.2/3h) 29 0/8 -- --
16:00 20.2 20.2 10.9 OSO 9.3 13.0 20.4 55 1011.1(-0.6/3h) 30 0/8 -- --
15:00 20.9 20.9 10.1 SO 13.0 13.0 66.7 50 1010.9(-0.7/3h) 27 0/8 -- --
14:00 21.5 21.5 10.0 SO 9.3 9.3 66.7 48 1011(-0.9/3h) 26 0/8 -- --
13:00 21.8 21.8 11.3 SSO 9.3 9.3 16.7 51 1011.3(-0.7/3h) 23 0/8 -- --
12:00 22.3 22.3 11.1 SSO 9.3 9.3 63.0 49 1011.3(-1.1/3h) 27 0/8 0/6h
--
11:00 21.7 21.7 12.6 S 7.4 7.4 63.0 56 1011.9(-0.8/3h) 30 0/8 -- --
10:00 19.7 19.7 10.3 SO 3.7 7.4 14.8 55 1012.6(-0.7/3h) 30 0/8 -- --
09:00 20.5 20.5 11.0 S 5.6 7.4 11.1 54 1012.8(-0.3/3h) 24 0/8 -- --
08:00 18.4 18.4 10.3 SSE 5.6 5.6 11.1 59 1013.5(-0.4/3h) 25 0/8 -- --
07:00 17.5 17.5 10.4 S 5.6 5.6 9.3 63 1013.8(-0.5/3h) 26 0/8 -- --
06:00 15.7 15.7 10.4 SSE 3.7 11.1 14.8 71 1014.3(-0.9/3h) 18 0/8 0/12h
--
05:00 13.7 13.7 9.2 SSE 3.7 3.7 7.4 74 1015(-0.9/3h) 17 0/8 -- --
04:00 13.1 13.1 8.5 SSE 3.7 5.6 9.3 74 1015.3(-0.8/3h) 17 0/8 -- --
03:00 13.5 13.5 8.6 SE 5.6 11.1 14.8 72 1015.8(-0.9/3h) 14 0/8 -- --
02:00 14.9 14.9 8.4 SE 7.4 9.3 13.0 65 1015.7(-1.3/3h) 15 0/8 -- --
01:00 15.3 15.1 8.0 ESE 9.3 11.1 14.8 62 1015.7(-1.8/3h) 13 0/8 -- --
00:00 15.5 15.3 8.1 ESE 9.3 9.3 14.8 61 1016.3(-1.6/3h) 12 0/8 0/6h
0/24h
--

1 Coordinated Universal Time. Actuellement il est 12:00 locale et 10:00 UTC.

2 Le vent souffle depuis la direction indiquée vers la direction oposée.

3 Les rafales max. sont disponible 40 min après l'heure du relevé.

4 Pour les stations d'altitude (plus de 600m) le géopotentiel du niveau le plus proche de la pression obligatoire est indiqué.

5 Les stations disposant d'un diffuseur peuvent indiquer "trace". Cela signifie que des précipitations ont touchés le sol mais que la quantité est inférieure à 0.1 mm.

Récapitulatif de la journée
Température [°C] Vent [km/h] Ensoleillement4 [h] Precipitations totale5 [mm] Pression [Hpa]
Min1 Max.2 Moy.3 Max. Min Max.
12.9 22.8 8.7 66.7 0 h 0 min 0 1010.9 1016.3

1 Température minimale relevée entre 18:00 UTC la veille et 18:00 UTC le jour donné.

2 Température maximale relevée entre 06:00 UTC le jour donné et 06:00 UTC le lendemain.

3 Vent moyen de la journée basé sur les relevés horaires.

4 Ensoleillement en heures relevé entre 06:00 UTC la veille et 06:00 UTC le jour donné.

5 Précipitations totales tombées entre 06:00 UTC la jour donné et 06:00 UTC le lendemain.

Graphiques horaires